N7TA KDVT-KDPA
Flight info
| Callsign | N7TA |
|---|---|
| Flight time | 2h 35m |
| Altitude | 45000 |
| Route | DVT3 PXR MRBIL YOTES JARPA ALS J102 LAA VARNE Q90 BOVEY ZURAN PIPPN JERKY |
| Aircraft | C750/M-SBDE3FGHRWXY/S |
Departure
| Time | 2026-04-20 13:44 |
|---|---|
| Airport | Phoenix Deer Valley Airport (KDVT) |
Arrival
| Time | 2026-04-20 16:20 |
|---|---|
| Airport | Dupage Airport (KDPA) |
| Time | Latitude | Longitude | Altitude | Speed | Heading |
|---|---|---|---|---|---|
| 2026-04-20 13:10 | 33.68597 | -112.08291 | 1468 ft | 0 kts | 352° |
| 2026-04-20 13:38 | 33.68610 | -112.08294 | 1466 ft | 3 kts | 351° |
| 2026-04-20 13:38 | 33.68630 | -112.08301 | 1468 ft | 5 kts | 333° |
| 2026-04-20 13:38 | 33.68668 | -112.08329 | 1467 ft | 6 kts | 315° |
| 2026-04-20 13:38 | 33.68674 | -112.08378 | 1466 ft | 6 kts | 267° |
| 2026-04-20 13:39 | 33.68671 | -112.08426 | 1461 ft | 6 kts | 266° |
| 2026-04-20 13:39 | 33.68668 | -112.08474 | 1465 ft | 6 kts | 266° |
| 2026-04-20 13:39 | 33.68665 | -112.08536 | 1464 ft | 9 kts | 266° |
| 2026-04-20 13:39 | 33.68658 | -112.08614 | 1463 ft | 9 kts | 260° |
| 2026-04-20 13:40 | 33.68655 | -112.08684 | 1463 ft | 8 kts | 268° |
| 2026-04-20 13:40 | 33.68653 | -112.08743 | 1463 ft | 6 kts | 267° |
| 2026-04-20 13:40 | 33.68651 | -112.08787 | 1463 ft | 4 kts | 266° |
| 2026-04-20 13:40 | 33.68648 | -112.08834 | 1463 ft | 8 kts | 266° |
| 2026-04-20 13:41 | 33.68644 | -112.08915 | 1462 ft | 12 kts | 266° |
| 2026-04-20 13:41 | 33.68637 | -112.09036 | 1459 ft | 16 kts | 266° |
| 2026-04-20 13:41 | 33.68629 | -112.09169 | 1458 ft | 16 kts | 266° |
| 2026-04-20 13:41 | 33.68622 | -112.09291 | 1458 ft | 14 kts | 265° |
| 2026-04-20 13:42 | 33.68615 | -112.09402 | 1457 ft | 13 kts | 266° |
| 2026-04-20 13:42 | 33.68612 | -112.09610 | 1452 ft | 5 kts | 316° |
| 2026-04-20 13:42 | 33.68644 | -112.09619 | 1453 ft | 6 kts | 354° |
| 2026-04-20 13:43 | 33.68686 | -112.09615 | 1455 ft | 4 kts | 44° |
| 2026-04-20 13:43 | 33.68688 | -112.09600 | 1456 ft | 0 kts | 87° |
| 2026-04-20 13:43 | 33.68695 | -112.09467 | 1457 ft | 56 kts | 87° |
| 2026-04-20 13:44 | 33.68739 | -112.08567 | 1477 ft | 144 kts | 87° |
| 2026-04-20 13:44 | 33.68803 | -112.07268 | 1813 ft | 165 kts | 86° |
| 2026-04-20 13:44 | 33.68881 | -112.05854 | 2258 ft | 177 kts | 85° |
| 2026-04-20 13:44 | 33.69077 | -112.04320 | 2740 ft | 193 kts | 69° |
| 2026-04-20 13:45 | 33.69908 | -112.03059 | 3398 ft | 197 kts | 38° |
| 2026-04-20 13:45 | 33.71195 | -112.02471 | 4054 ft | 206 kts | 6° |
| 2026-04-20 13:45 | 33.72636 | -112.02781 | 4602 ft | 219 kts | 336° |
| 2026-04-20 13:45 | 33.73837 | -112.04035 | 4920 ft | 249 kts | 300° |
| 2026-04-20 13:46 | 33.74198 | -112.06151 | 5212 ft | 274 kts | 266° |
| 2026-04-20 13:46 | 33.74049 | -112.08379 | 6101 ft | 272 kts | 259° |
| 2026-04-20 13:46 | 33.73433 | -112.10471 | 6947 ft | 273 kts | 239° |
| 2026-04-20 13:46 | 33.72156 | -112.12150 | 7794 ft | 276 kts | 213° |
| 2026-04-20 13:47 | 33.70340 | -112.12863 | 8694 ft | 281 kts | 182° |
| 2026-04-20 13:47 | 33.68453 | -112.12276 | 9577 ft | 285 kts | 153° |
| 2026-04-20 13:47 | 33.66770 | -112.10985 | 10338 ft | 292 kts | 146° |
| 2026-04-20 13:47 | 33.64976 | -112.09643 | 10599 ft | 316 kts | 151° |
| 2026-04-20 13:48 | 33.62921 | -112.08447 | 10695 ft | 342 kts | 156° |
| 2026-04-20 13:48 | 33.60700 | -112.07269 | 11152 ft | 351 kts | 155° |
| 2026-04-20 13:48 | 33.58503 | -112.05981 | 11920 ft | 352 kts | 153° |
| 2026-04-20 13:48 | 33.56316 | -112.04634 | 12622 ft | 355 kts | 154° |
| 2026-04-20 13:49 | 33.54225 | -112.03053 | 13164 ft | 361 kts | 139° |
| 2026-04-20 13:49 | 33.52706 | -112.00659 | 13882 ft | 364 kts | 120° |
| 2026-04-20 13:49 | 33.51942 | -111.97747 | 14442 ft | 372 kts | 99° |
| 2026-04-20 13:49 | 33.52081 | -111.94640 | 14999 ft | 378 kts | 78° |
| 2026-04-20 13:50 | 33.53151 | -111.91752 | 15609 ft | 384 kts | 57° |
| 2026-04-20 13:50 | 33.55008 | -111.89521 | 16201 ft | 388 kts | 35° |
| 2026-04-20 13:50 | 33.57345 | -111.87885 | 16839 ft | 389 kts | 28° |
| 2026-04-20 13:50 | 33.59755 | -111.86371 | 17474 ft | 393 kts | 27° |
| 2026-04-20 13:51 | 33.62188 | -111.84842 | 18124 ft | 396 kts | 27° |
| 2026-04-20 13:51 | 33.64618 | -111.83249 | 18722 ft | 399 kts | 28° |
| 2026-04-20 13:51 | 33.67059 | -111.81638 | 19322 ft | 402 kts | 28° |
| 2026-04-20 13:51 | 33.69530 | -111.80041 | 19948 ft | 405 kts | 27° |
| 2026-04-20 13:52 | 33.72023 | -111.78438 | 20556 ft | 408 kts | 27° |
| 2026-04-20 13:52 | 33.74538 | -111.76803 | 21134 ft | 412 kts | 28° |
| 2026-04-20 13:52 | 33.77067 | -111.75148 | 21707 ft | 416 kts | 28° |
| 2026-04-20 13:52 | 33.79622 | -111.73484 | 22312 ft | 420 kts | 27° |
| 2026-04-20 13:53 | 33.82209 | -111.71804 | 22914 ft | 424 kts | 27° |
| 2026-04-20 13:53 | 33.84809 | -111.70111 | 23499 ft | 428 kts | 28° |
| 2026-04-20 13:53 | 33.87440 | -111.68392 | 24009 ft | 431 kts | 27° |
| 2026-04-20 13:53 | 33.90079 | -111.66668 | 24535 ft | 433 kts | 27° |
| 2026-04-20 13:54 | 33.92736 | -111.64934 | 25050 ft | 436 kts | 27° |
| 2026-04-20 13:54 | 33.95410 | -111.63186 | 25554 ft | 439 kts | 27° |
| 2026-04-20 13:54 | 33.98101 | -111.61426 | 26054 ft | 442 kts | 27° |
| 2026-04-20 13:54 | 34.00757 | -111.59642 | 26532 ft | 445 kts | 30° |
| 2026-04-20 13:55 | 34.03381 | -111.57638 | 27014 ft | 448 kts | 32° |
| 2026-04-20 13:55 | 34.06004 | -111.55593 | 27591 ft | 450 kts | 32° |
| 2026-04-20 13:55 | 34.08649 | -111.53560 | 28112 ft | 453 kts | 31° |
| 2026-04-20 13:55 | 34.11334 | -111.51519 | 28642 ft | 456 kts | 31° |
| 2026-04-20 13:56 | 34.14026 | -111.49455 | 29165 ft | 459 kts | 31° |
| 2026-04-20 13:56 | 34.16731 | -111.47362 | 29669 ft | 463 kts | 31° |
| 2026-04-20 13:56 | 34.19454 | -111.45262 | 30162 ft | 466 kts | 31° |
| 2026-04-20 13:56 | 34.22196 | -111.43157 | 30590 ft | 469 kts | 31° |
| 2026-04-20 13:57 | 34.24956 | -111.41034 | 30986 ft | 472 kts | 31° |
| 2026-04-20 13:57 | 34.27726 | -111.38892 | 31476 ft | 472 kts | 31° |
| 2026-04-20 13:57 | 34.30479 | -111.36762 | 32103 ft | 469 kts | 31° |
| 2026-04-20 13:57 | 34.33229 | -111.34639 | 32684 ft | 468 kts | 31° |
| 2026-04-20 13:58 | 34.35966 | -111.32525 | 33278 ft | 466 kts | 31° |
| 2026-04-20 13:58 | 34.38699 | -111.30408 | 33870 ft | 465 kts | 31° |
| 2026-04-20 13:58 | 34.41416 | -111.28302 | 34395 ft | 464 kts | 31° |
| 2026-04-20 13:58 | 34.44102 | -111.26220 | 34783 ft | 465 kts | 30° |
| 2026-04-20 13:59 | 34.46835 | -111.24102 | 35085 ft | 467 kts | 30° |
| 2026-04-20 13:59 | 34.49575 | -111.21974 | 35505 ft | 468 kts | 30° |
| 2026-04-20 13:59 | 34.52322 | -111.19838 | 35920 ft | 470 kts | 30° |
| 2026-04-20 13:59 | 34.55077 | -111.17696 | 36333 ft | 471 kts | 30° |
| 2026-04-20 14:00 | 34.57841 | -111.15546 | 36747 ft | 473 kts | 30° |
| 2026-04-20 14:00 | 34.60617 | -111.13384 | 37168 ft | 475 kts | 30° |
| 2026-04-20 14:00 | 34.63293 | -111.10996 | 37497 ft | 481 kts | 38° |
| 2026-04-20 14:00 | 34.65717 | -111.08173 | 37953 ft | 483 kts | 43° |
| 2026-04-20 14:01 | 34.68038 | -111.05205 | 38380 ft | 485 kts | 44° |
| 2026-04-20 14:01 | 34.70401 | -111.02270 | 38782 ft | 486 kts | 42° |
| 2026-04-20 14:01 | 34.72836 | -110.99416 | 39116 ft | 487 kts | 41° |
| 2026-04-20 14:01 | 34.75272 | -110.96533 | 39479 ft | 489 kts | 43° |
| 2026-04-20 14:02 | 34.77662 | -110.93587 | 39840 ft | 490 kts | 44° |
| 2026-04-20 14:02 | 34.80058 | -110.90628 | 40210 ft | 491 kts | 43° |
| 2026-04-20 14:02 | 34.82491 | -110.87696 | 40567 ft | 492 kts | 43° |
| 2026-04-20 14:02 | 34.84932 | -110.84767 | 40917 ft | 493 kts | 43° |
| 2026-04-20 14:03 | 34.87334 | -110.81838 | 41269 ft | 495 kts | 43° |
| 2026-04-20 14:03 | 34.89762 | -110.78857 | 41582 ft | 497 kts | 43° |
| 2026-04-20 14:03 | 34.92215 | -110.75870 | 41899 ft | 498 kts | 43° |
| 2026-04-20 14:03 | 34.94670 | -110.72891 | 42278 ft | 499 kts | 43° |
| 2026-04-20 14:04 | 34.97127 | -110.69894 | 42611 ft | 500 kts | 43° |
| 2026-04-20 14:04 | 34.99581 | -110.66885 | 42930 ft | 501 kts | 44° |
| 2026-04-20 14:04 | 35.02040 | -110.63877 | 43250 ft | 501 kts | 43° |
| 2026-04-20 14:04 | 35.04509 | -110.60861 | 43412 ft | 502 kts | 44° |
| 2026-04-20 14:05 | 35.06983 | -110.57831 | 43725 ft | 503 kts | 44° |
| 2026-04-20 14:05 | 35.09450 | -110.54802 | 44039 ft | 504 kts | 44° |
| 2026-04-20 14:05 | 35.11926 | -110.51763 | 44345 ft | 505 kts | 44° |
| 2026-04-20 14:05 | 35.14403 | -110.48722 | 44648 ft | 505 kts | 44° |
| 2026-04-20 14:06 | 35.16885 | -110.45671 | 44891 ft | 506 kts | 44° |
| 2026-04-20 14:06 | 35.19368 | -110.42614 | 45006 ft | 510 kts | 44° |
| 2026-04-20 14:06 | 35.24401 | -110.36413 | 45016 ft | 524 kts | 44° |
| 2026-04-20 14:07 | 35.29597 | -110.29996 | 45009 ft | 536 kts | 44° |
| 2026-04-20 14:07 | 35.34893 | -110.23444 | 45007 ft | 547 kts | 44° |
| 2026-04-20 14:08 | 35.40256 | -110.16794 | 45010 ft | 548 kts | 44° |
| 2026-04-20 14:08 | 35.45625 | -110.10127 | 44990 ft | 550 kts | 44° |
| 2026-04-20 14:09 | 35.50997 | -110.03439 | 44989 ft | 550 kts | 44° |
| 2026-04-20 14:09 | 35.56364 | -109.96746 | 44996 ft | 550 kts | 44° |
| 2026-04-20 14:10 | 35.61696 | -109.90082 | 44985 ft | 550 kts | 44° |
| 2026-04-20 14:10 | 35.67058 | -109.83368 | 44979 ft | 550 kts | 44° |
| 2026-04-20 14:11 | 35.71940 | -109.76198 | 44957 ft | 552 kts | 57° |
| 2026-04-20 14:11 | 35.75551 | -109.67859 | 44975 ft | 552 kts | 65° |
| 2026-04-20 14:12 | 35.79052 | -109.59456 | 44977 ft | 552 kts | 60° |
| 2026-04-20 14:12 | 35.82808 | -109.51196 | 44969 ft | 552 kts | 63° |
| 2026-04-20 14:13 | 35.86343 | -109.42778 | 44958 ft | 554 kts | 61° |
| 2026-04-20 14:13 | 35.90058 | -109.34435 | 44970 ft | 555 kts | 62° |
| 2026-04-20 14:14 | 35.93638 | -109.26002 | 44973 ft | 554 kts | 62° |
| 2026-04-20 14:14 | 35.97283 | -109.17665 | 44986 ft | 555 kts | 62° |
| 2026-04-20 14:15 | 36.00879 | -109.09245 | 44985 ft | 556 kts | 62° |
| 2026-04-20 14:15 | 36.04526 | -109.00794 | 44987 ft | 556 kts | 62° |
| 2026-04-20 14:16 | 36.08136 | -108.92343 | 44992 ft | 556 kts | 62° |
| 2026-04-20 14:16 | 36.11756 | -108.83881 | 45004 ft | 556 kts | 62° |
| 2026-04-20 14:17 | 36.14760 | -108.76834 | 44997 ft | 556 kts | 62° |
| 2026-04-20 14:17 | 36.18959 | -108.66953 | 45020 ft | 558 kts | 62° |
| 2026-04-20 14:18 | 36.21981 | -108.59832 | 45019 ft | 557 kts | 62° |
| 2026-04-20 14:18 | 36.25554 | -108.51379 | 45067 ft | 557 kts | 62° |
| 2026-04-20 14:19 | 36.29155 | -108.42849 | 45087 ft | 558 kts | 62° |
| 2026-04-20 14:19 | 36.32748 | -108.34310 | 45074 ft | 559 kts | 62° |
| 2026-04-20 14:20 | 36.36340 | -108.25754 | 45076 ft | 559 kts | 62° |
| 2026-04-20 14:20 | 36.39923 | -108.17195 | 45077 ft | 559 kts | 62° |
| 2026-04-20 14:21 | 36.43498 | -108.08633 | 45110 ft | 558 kts | 62° |
| 2026-04-20 14:21 | 36.47071 | -108.00055 | 45127 ft | 559 kts | 62° |
| 2026-04-20 14:22 | 36.50612 | -107.91530 | 45126 ft | 559 kts | 62° |
| 2026-04-20 14:22 | 36.54173 | -107.82934 | 45134 ft | 559 kts | 62° |
| 2026-04-20 14:23 | 36.57724 | -107.74337 | 45144 ft | 558 kts | 62° |
| 2026-04-20 14:23 | 36.61275 | -107.65722 | 45150 ft | 559 kts | 62° |
| 2026-04-20 14:24 | 36.64821 | -107.57093 | 45167 ft | 560 kts | 62° |
| 2026-04-20 14:24 | 36.68363 | -107.48452 | 45165 ft | 559 kts | 62° |
| 2026-04-20 14:25 | 36.71901 | -107.39797 | 45175 ft | 560 kts | 62° |
| 2026-04-20 14:25 | 36.75410 | -107.31188 | 45171 ft | 561 kts | 62° |
| 2026-04-20 14:26 | 36.78943 | -107.22501 | 45169 ft | 561 kts | 62° |
| 2026-04-20 14:26 | 36.82462 | -107.13819 | 45168 ft | 561 kts | 62° |
| 2026-04-20 14:27 | 36.85978 | -107.05127 | 45171 ft | 560 kts | 62° |
| 2026-04-20 14:27 | 36.89487 | -106.96424 | 45169 ft | 561 kts | 62° |
| 2026-04-20 14:28 | 36.92995 | -106.87702 | 45169 ft | 561 kts | 62° |
| 2026-04-20 14:28 | 36.96493 | -106.78979 | 45171 ft | 561 kts | 62° |
| 2026-04-20 14:29 | 36.99988 | -106.70244 | 45205 ft | 561 kts | 62° |
| 2026-04-20 14:29 | 37.03482 | -106.61484 | 45200 ft | 563 kts | 63° |
| 2026-04-20 14:30 | 37.06968 | -106.52721 | 45192 ft | 562 kts | 62° |
| 2026-04-20 14:30 | 37.10449 | -106.43944 | 45196 ft | 563 kts | 62° |
| 2026-04-20 14:31 | 37.13897 | -106.35225 | 45196 ft | 564 kts | 62° |
| 2026-04-20 14:31 | 37.17372 | -106.26420 | 45190 ft | 562 kts | 62° |
| 2026-04-20 14:32 | 37.20841 | -106.17598 | 45196 ft | 563 kts | 62° |
| 2026-04-20 14:32 | 37.24302 | -106.08780 | 45194 ft | 563 kts | 62° |
| 2026-04-20 14:33 | 37.27755 | -105.99951 | 45194 ft | 563 kts | 62° |
| 2026-04-20 14:33 | 37.31200 | -105.91120 | 45317 ft | 563 kts | 62° |
| 2026-04-20 14:34 | 37.34609 | -105.82331 | 45326 ft | 563 kts | 63° |
| 2026-04-20 14:34 | 37.37369 | -105.73109 | 45320 ft | 564 kts | 70° |
| 2026-04-20 14:35 | 37.39978 | -105.63811 | 45280 ft | 564 kts | 68° |
| 2026-04-20 14:35 | 37.42671 | -105.54538 | 45242 ft | 565 kts | 70° |
| 2026-04-20 14:36 | 37.45279 | -105.45214 | 45169 ft | 564 kts | 69° |
| 2026-04-20 14:36 | 37.47947 | -105.35906 | 45147 ft | 564 kts | 69° |
| 2026-04-20 14:37 | 37.50536 | -105.26642 | 45114 ft | 564 kts | 69° |
| 2026-04-20 14:37 | 37.53175 | -105.17323 | 45086 ft | 565 kts | 69° |
| 2026-04-20 14:38 | 37.55781 | -105.07977 | 45080 ft | 564 kts | 69° |
| 2026-04-20 14:38 | 37.58400 | -104.98630 | 45052 ft | 565 kts | 69° |
| 2026-04-20 14:39 | 37.60996 | -104.89281 | 45044 ft | 565 kts | 69° |
| 2026-04-20 14:39 | 37.63595 | -104.79916 | 45045 ft | 566 kts | 69° |
| 2026-04-20 14:40 | 37.66183 | -104.70542 | 45045 ft | 565 kts | 69° |
| 2026-04-20 14:40 | 37.68767 | -104.61159 | 45032 ft | 566 kts | 69° |
| 2026-04-20 14:41 | 37.71343 | -104.51768 | 45033 ft | 565 kts | 69° |
| 2026-04-20 14:41 | 37.73894 | -104.42436 | 45022 ft | 565 kts | 69° |
| 2026-04-20 14:42 | 37.76454 | -104.33036 | 45019 ft | 566 kts | 70° |
| 2026-04-20 14:42 | 37.79006 | -104.23630 | 45026 ft | 566 kts | 69° |
| 2026-04-20 14:43 | 37.81553 | -104.14208 | 45024 ft | 567 kts | 69° |
| 2026-04-20 14:43 | 37.84095 | -104.04774 | 45030 ft | 566 kts | 69° |
| 2026-04-20 14:44 | 37.86628 | -103.95336 | 45029 ft | 566 kts | 70° |
| 2026-04-20 14:44 | 37.89155 | -103.85888 | 45038 ft | 566 kts | 70° |
| 2026-04-20 14:45 | 37.91678 | -103.76419 | 45047 ft | 567 kts | 69° |
| 2026-04-20 14:45 | 37.94179 | -103.67000 | 45048 ft | 567 kts | 70° |
| 2026-04-20 14:46 | 37.96684 | -103.57527 | 45047 ft | 567 kts | 70° |
| 2026-04-20 14:46 | 37.97934 | -103.52787 | 45182 ft | 567 kts | 70° |
| 2026-04-20 14:46 | 37.99184 | -103.48038 | 45183 ft | 567 kts | 69° |
| 2026-04-20 14:47 | 38.01678 | -103.38541 | 45172 ft | 568 kts | 69° |
| 2026-04-20 14:48 | 38.05412 | -103.24250 | 45118 ft | 568 kts | 70° |
| 2026-04-20 14:48 | 38.07888 | -103.14728 | 45084 ft | 568 kts | 70° |
| 2026-04-20 14:49 | 38.10344 | -103.05248 | 45075 ft | 569 kts | 69° |
| 2026-04-20 14:49 | 38.12810 | -102.95696 | 45103 ft | 569 kts | 70° |
| 2026-04-20 14:50 | 38.15268 | -102.86134 | 45124 ft | 569 kts | 70° |
| 2026-04-20 14:50 | 38.17721 | -102.76559 | 45139 ft | 569 kts | 69° |
| 2026-04-20 14:51 | 38.20330 | -102.67067 | 45120 ft | 567 kts | 62° |
| 2026-04-20 14:51 | 38.23846 | -102.58199 | 45115 ft | 565 kts | 58° |
| 2026-04-20 14:52 | 38.27320 | -102.49210 | 45095 ft | 566 kts | 61° |
| 2026-04-20 14:52 | 38.30797 | -102.40221 | 45076 ft | 565 kts | 59° |
| 2026-04-20 14:53 | 38.34297 | -102.31211 | 45045 ft | 566 kts | 60° |
| 2026-04-20 14:53 | 38.37748 | -102.22195 | 45045 ft | 566 kts | 59° |
| 2026-04-20 14:54 | 38.41206 | -102.13248 | 45036 ft | 566 kts | 60° |
| 2026-04-20 14:54 | 38.44648 | -102.04213 | 45049 ft | 566 kts | 60° |
| 2026-04-20 14:55 | 38.48113 | -101.95178 | 45048 ft | 567 kts | 60° |
| 2026-04-20 14:55 | 38.51553 | -101.86114 | 45051 ft | 567 kts | 60° |
| 2026-04-20 14:56 | 38.55013 | -101.77019 | 45047 ft | 568 kts | 60° |
| 2026-04-20 14:56 | 38.58445 | -101.67934 | 45055 ft | 568 kts | 60° |
| 2026-04-20 14:57 | 38.61886 | -101.58827 | 45061 ft | 569 kts | 60° |
| 2026-04-20 14:57 | 38.65313 | -101.49708 | 45061 ft | 569 kts | 60° |
| 2026-04-20 14:58 | 38.68738 | -101.40581 | 45064 ft | 569 kts | 60° |
| 2026-04-20 14:58 | 38.72150 | -101.31450 | 45065 ft | 569 kts | 60° |
| 2026-04-20 14:59 | 38.75564 | -101.22296 | 45063 ft | 569 kts | 60° |
| 2026-04-20 14:59 | 38.78968 | -101.13132 | 45061 ft | 569 kts | 60° |
| 2026-04-20 15:00 | 38.82350 | -101.04006 | 45067 ft | 569 kts | 60° |
| 2026-04-20 15:00 | 38.85740 | -100.94828 | 45093 ft | 569 kts | 60° |
| 2026-04-20 15:01 | 38.89125 | -100.85636 | 45108 ft | 569 kts | 60° |
| 2026-04-20 15:01 | 38.92501 | -100.76439 | 45116 ft | 569 kts | 60° |
| 2026-04-20 15:02 | 38.95875 | -100.67217 | 45119 ft | 569 kts | 60° |
| 2026-04-20 15:02 | 38.99236 | -100.58005 | 45110 ft | 569 kts | 60° |
| 2026-04-20 15:03 | 39.02590 | -100.48783 | 45095 ft | 569 kts | 60° |
| 2026-04-20 15:03 | 39.05917 | -100.39608 | 45083 ft | 569 kts | 60° |
| 2026-04-20 15:04 | 39.09256 | -100.30368 | 45080 ft | 569 kts | 60° |
| 2026-04-20 15:04 | 39.12586 | -100.21126 | 45085 ft | 569 kts | 60° |
| 2026-04-20 15:05 | 39.15902 | -100.11891 | 45092 ft | 565 kts | 60° |
| 2026-04-20 15:05 | 39.19199 | -100.02689 | 45090 ft | 566 kts | 60° |
| 2026-04-20 15:06 | 39.22495 | -99.93451 | 45094 ft | 566 kts | 60° |
| 2026-04-20 15:06 | 39.25226 | -99.85778 | 45091 ft | 567 kts | 60° |
| 2026-04-20 15:07 | 39.28510 | -99.76524 | 45097 ft | 565 kts | 60° |
| 2026-04-20 15:07 | 39.31779 | -99.67285 | 45096 ft | 566 kts | 60° |
| 2026-04-20 15:08 | 39.35042 | -99.58030 | 45097 ft | 566 kts | 60° |
| 2026-04-20 15:08 | 39.38296 | -99.48770 | 45114 ft | 566 kts | 60° |
| 2026-04-20 15:09 | 39.41546 | -99.39499 | 45105 ft | 565 kts | 60° |
| 2026-04-20 15:09 | 39.44781 | -99.30234 | 45108 ft | 564 kts | 60° |
| 2026-04-20 15:10 | 39.47983 | -99.21039 | 45114 ft | 564 kts | 60° |
| 2026-04-20 15:10 | 39.51199 | -99.11770 | 45115 ft | 564 kts | 60° |
| 2026-04-20 15:11 | 39.54407 | -99.02494 | 45111 ft | 563 kts | 60° |
| 2026-04-20 15:11 | 39.57355 | -98.93076 | 45099 ft | 568 kts | 67° |
| 2026-04-20 15:12 | 39.59624 | -98.83227 | 45105 ft | 570 kts | 69° |
| 2026-04-20 15:12 | 39.62009 | -98.73437 | 45105 ft | 569 kts | 67° |
| 2026-04-20 15:13 | 39.64312 | -98.63621 | 45110 ft | 568 kts | 68° |
| 2026-04-20 15:13 | 39.66637 | -98.53832 | 45109 ft | 567 kts | 68° |
| 2026-04-20 15:14 | 39.68942 | -98.44031 | 45111 ft | 568 kts | 68° |
| 2026-04-20 15:14 | 39.71239 | -98.34215 | 45146 ft | 568 kts | 68° |
| 2026-04-20 15:15 | 39.73533 | -98.24406 | 45114 ft | 566 kts | 68° |
| 2026-04-20 15:15 | 39.75800 | -98.14625 | 45122 ft | 563 kts | 68° |
| 2026-04-20 15:16 | 39.78048 | -98.04937 | 45121 ft | 564 kts | 68° |
| 2026-04-20 15:16 | 39.80294 | -97.95169 | 45151 ft | 564 kts | 68° |
| 2026-04-20 15:17 | 39.82530 | -97.85432 | 45134 ft | 560 kts | 68° |
| 2026-04-20 15:17 | 39.84751 | -97.75706 | 45134 ft | 561 kts | 68° |
| 2026-04-20 15:18 | 39.86970 | -97.65951 | 45138 ft | 561 kts | 68° |
| 2026-04-20 15:18 | 39.89166 | -97.56191 | 45148 ft | 561 kts | 68° |
| 2026-04-20 15:19 | 39.91347 | -97.46443 | 45139 ft | 560 kts | 68° |
| 2026-04-20 15:19 | 39.93511 | -97.36754 | 45145 ft | 560 kts | 69° |
| 2026-04-20 15:20 | 39.95674 | -97.26995 | 45152 ft | 560 kts | 69° |
| 2026-04-20 15:20 | 39.97837 | -97.17220 | 45149 ft | 560 kts | 69° |
| 2026-04-20 15:21 | 39.99988 | -97.07442 | 45163 ft | 560 kts | 69° |
| 2026-04-20 15:21 | 40.02128 | -96.97673 | 45168 ft | 560 kts | 69° |
| 2026-04-20 15:22 | 40.04263 | -96.87884 | 45170 ft | 560 kts | 69° |
| 2026-04-20 15:22 | 40.06368 | -96.78185 | 45182 ft | 554 kts | 69° |
| 2026-04-20 15:23 | 40.08458 | -96.68522 | 45171 ft | 553 kts | 69° |
| 2026-04-20 15:23 | 40.10542 | -96.58836 | 45172 ft | 554 kts | 69° |
| 2026-04-20 15:24 | 40.12618 | -96.49142 | 45183 ft | 554 kts | 69° |
| 2026-04-20 15:24 | 40.14685 | -96.39449 | 45188 ft | 551 kts | 69° |
| 2026-04-20 15:25 | 40.16736 | -96.29783 | 45191 ft | 552 kts | 70° |
| 2026-04-20 15:25 | 40.18574 | -96.20013 | 45191 ft | 553 kts | 71° |
| 2026-04-20 15:26 | 40.20413 | -96.10297 | 45193 ft | 553 kts | 71° |
| 2026-04-20 15:26 | 40.22229 | -96.00522 | 45199 ft | 551 kts | 71° |
| 2026-04-20 15:27 | 40.24048 | -95.90775 | 45204 ft | 552 kts | 71° |
| 2026-04-20 15:27 | 40.25851 | -95.81000 | 45204 ft | 552 kts | 71° |
| 2026-04-20 15:28 | 40.27652 | -95.71227 | 45209 ft | 552 kts | 71° |
| 2026-04-20 15:28 | 40.29437 | -95.61468 | 45216 ft | 551 kts | 71° |
| 2026-04-20 15:29 | 40.31215 | -95.51713 | 45214 ft | 551 kts | 71° |
| 2026-04-20 15:29 | 40.32985 | -95.41940 | 45223 ft | 551 kts | 71° |
| 2026-04-20 15:30 | 40.34739 | -95.32209 | 45264 ft | 551 kts | 71° |
| 2026-04-20 15:30 | 40.37045 | -95.22755 | 45238 ft | 540 kts | 64° |
| 2026-04-20 15:31 | 40.39615 | -95.13485 | 45237 ft | 541 kts | 65° |
| 2026-04-20 15:31 | 40.42100 | -95.04142 | 45239 ft | 541 kts | 64° |
| 2026-04-20 15:32 | 40.44640 | -94.94829 | 45269 ft | 542 kts | 65° |
| 2026-04-20 15:32 | 40.47108 | -94.85553 | 45234 ft | 540 kts | 65° |
| 2026-04-20 15:33 | 40.49610 | -94.76252 | 45240 ft | 540 kts | 65° |
| 2026-04-20 15:33 | 40.52087 | -94.66920 | 45260 ft | 540 kts | 65° |
| 2026-04-20 15:34 | 40.54565 | -94.57603 | 45255 ft | 540 kts | 65° |
| 2026-04-20 15:34 | 40.57030 | -94.48273 | 45272 ft | 539 kts | 65° |
| 2026-04-20 15:35 | 40.59489 | -94.38940 | 45275 ft | 540 kts | 65° |
| 2026-04-20 15:35 | 40.61941 | -94.29597 | 45277 ft | 540 kts | 65° |
| 2026-04-20 15:36 | 40.64383 | -94.20254 | 45288 ft | 540 kts | 65° |
| 2026-04-20 15:36 | 40.66815 | -94.10914 | 45285 ft | 537 kts | 65° |
| 2026-04-20 15:37 | 40.69219 | -94.01653 | 45287 ft | 538 kts | 65° |
| 2026-04-20 15:37 | 40.71631 | -93.92317 | 45286 ft | 538 kts | 65° |
| 2026-04-20 15:38 | 40.74037 | -93.82973 | 45287 ft | 538 kts | 65° |
| 2026-04-20 15:38 | 40.76438 | -93.73611 | 45298 ft | 538 kts | 65° |
| 2026-04-20 15:39 | 40.78826 | -93.64263 | 45299 ft | 538 kts | 65° |
| 2026-04-20 15:39 | 40.81208 | -93.54904 | 45300 ft | 538 kts | 65° |
| 2026-04-20 15:40 | 40.83568 | -93.45592 | 45302 ft | 538 kts | 65° |
| 2026-04-20 15:40 | 40.85937 | -93.36212 | 45312 ft | 538 kts | 65° |
| 2026-04-20 15:41 | 40.88294 | -93.26834 | 45302 ft | 536 kts | 65° |
| 2026-04-20 15:41 | 40.90640 | -93.17478 | 45302 ft | 536 kts | 65° |
| 2026-04-20 15:42 | 40.92980 | -93.08095 | 45305 ft | 537 kts | 65° |
| 2026-04-20 15:42 | 40.95314 | -92.98710 | 45319 ft | 538 kts | 65° |
| 2026-04-20 15:43 | 40.97642 | -92.89302 | 45324 ft | 538 kts | 65° |
| 2026-04-20 15:43 | 40.99962 | -92.79898 | 45329 ft | 537 kts | 65° |
| 2026-04-20 15:44 | 41.02273 | -92.70484 | 45334 ft | 538 kts | 66° |
| 2026-04-20 15:44 | 41.04569 | -92.61105 | 45339 ft | 539 kts | 66° |
| 2026-04-20 15:45 | 41.06867 | -92.51668 | 45337 ft | 538 kts | 66° |
| 2026-04-20 15:45 | 41.09161 | -92.42216 | 45337 ft | 539 kts | 66° |
| 2026-04-20 15:46 | 41.11450 | -92.32743 | 45339 ft | 540 kts | 66° |
| 2026-04-20 15:46 | 41.13731 | -92.23260 | 45343 ft | 538 kts | 66° |
| 2026-04-20 15:47 | 41.15999 | -92.13804 | 45353 ft | 538 kts | 66° |
| 2026-04-20 15:47 | 41.18261 | -92.04328 | 45357 ft | 538 kts | 66° |
| 2026-04-20 15:48 | 41.20515 | -91.94841 | 45353 ft | 539 kts | 66° |
| 2026-04-20 15:48 | 41.22747 | -91.85415 | 45352 ft | 537 kts | 66° |
| 2026-04-20 15:49 | 41.24981 | -91.75938 | 45350 ft | 537 kts | 66° |
| 2026-04-20 15:49 | 41.27209 | -91.66450 | 45350 ft | 538 kts | 66° |
| 2026-04-20 15:50 | 41.29430 | -91.56948 | 45346 ft | 537 kts | 66° |
| 2026-04-20 15:50 | 41.31640 | -91.47459 | 45360 ft | 537 kts | 66° |
| 2026-04-20 15:51 | 41.33844 | -91.37950 | 45381 ft | 537 kts | 66° |
| 2026-04-20 15:51 | 41.35663 | -91.30068 | 45377 ft | 534 kts | 66° |
| 2026-04-20 15:52 | 41.37839 | -91.20615 | 45372 ft | 535 kts | 66° |
| 2026-04-20 15:52 | 41.40362 | -91.09595 | 45381 ft | 535 kts | 66° |
| 2026-04-20 15:53 | 41.43239 | -90.96965 | 45377 ft | 535 kts | 66° |
| 2026-04-20 15:53 | 41.44303 | -90.92265 | 44785 ft | 525 kts | 66° |
| 2026-04-20 15:53 | 41.45341 | -90.87660 | 44110 ft | 513 kts | 66° |
| 2026-04-20 15:54 | 41.46360 | -90.83151 | 43447 ft | 502 kts | 66° |
| 2026-04-20 15:54 | 41.47360 | -90.78727 | 42803 ft | 492 kts | 66° |
| 2026-04-20 15:54 | 41.48334 | -90.74403 | 42176 ft | 483 kts | 66° |
| 2026-04-20 15:54 | 41.49293 | -90.70135 | 41533 ft | 477 kts | 65° |
| 2026-04-20 15:55 | 41.50243 | -90.65903 | 40910 ft | 475 kts | 65° |
| 2026-04-20 15:55 | 41.51087 | -90.61636 | 40291 ft | 477 kts | 68° |
| 2026-04-20 15:55 | 41.51880 | -90.57335 | 39665 ft | 478 kts | 69° |
| 2026-04-20 15:55 | 41.52677 | -90.53031 | 39029 ft | 478 kts | 68° |
| 2026-04-20 15:56 | 41.53482 | -90.48740 | 38346 ft | 475 kts | 68° |
| 2026-04-20 15:56 | 41.54279 | -90.44473 | 37719 ft | 473 kts | 68° |
| 2026-04-20 15:56 | 41.55071 | -90.40205 | 37095 ft | 473 kts | 68° |
| 2026-04-20 15:56 | 41.55859 | -90.35936 | 36478 ft | 472 kts | 68° |
| 2026-04-20 15:57 | 41.56643 | -90.31692 | 35851 ft | 469 kts | 68° |
| 2026-04-20 15:57 | 41.57420 | -90.27477 | 35238 ft | 467 kts | 68° |
| 2026-04-20 15:57 | 41.58195 | -90.23272 | 34630 ft | 465 kts | 67° |
| 2026-04-20 15:57 | 41.58967 | -90.19069 | 33988 ft | 464 kts | 67° |
| 2026-04-20 15:58 | 41.59737 | -90.14872 | 33374 ft | 467 kts | 67° |
| 2026-04-20 15:58 | 41.60512 | -90.10639 | 32756 ft | 470 kts | 68° |
| 2026-04-20 15:58 | 41.61288 | -90.06378 | 32134 ft | 473 kts | 68° |
| 2026-04-20 15:58 | 41.62057 | -90.02144 | 31516 ft | 475 kts | 68° |
| 2026-04-20 15:59 | 41.62838 | -89.97842 | 30920 ft | 479 kts | 68° |
| 2026-04-20 15:59 | 41.63618 | -89.93528 | 30233 ft | 474 kts | 68° |
| 2026-04-20 15:59 | 41.64383 | -89.89265 | 29599 ft | 470 kts | 68° |
| 2026-04-20 15:59 | 41.65150 | -89.85024 | 28986 ft | 467 kts | 68° |
| 2026-04-20 16:00 | 41.65909 | -89.80817 | 28372 ft | 463 kts | 68° |
| 2026-04-20 16:00 | 41.66658 | -89.76638 | 27766 ft | 460 kts | 68° |
| 2026-04-20 16:00 | 41.67325 | -89.72454 | 27132 ft | 464 kts | 74° |
| 2026-04-20 16:00 | 41.67490 | -89.68116 | 26544 ft | 467 kts | 81° |
| 2026-04-20 16:01 | 41.67585 | -89.63789 | 25937 ft | 464 kts | 81° |
| 2026-04-20 16:01 | 41.67709 | -89.59486 | 25326 ft | 460 kts | 80° |
| 2026-04-20 16:01 | 41.67843 | -89.55282 | 24730 ft | 457 kts | 81° |
| 2026-04-20 16:01 | 41.67959 | -89.50991 | 24123 ft | 454 kts | 81° |
| 2026-04-20 16:02 | 41.68064 | -89.46788 | 23478 ft | 449 kts | 81° |
| 2026-04-20 16:02 | 41.68549 | -89.42796 | 22865 ft | 432 kts | 66° |
| 2026-04-20 16:02 | 41.69725 | -89.39190 | 22328 ft | 418 kts | 53° |
| 2026-04-20 16:02 | 41.71145 | -89.35802 | 21791 ft | 416 kts | 52° |
| 2026-04-20 16:03 | 41.72561 | -89.32439 | 21246 ft | 413 kts | 53° |
| 2026-04-20 16:03 | 41.73948 | -89.29087 | 20703 ft | 411 kts | 53° |
| 2026-04-20 16:03 | 41.75326 | -89.25740 | 20157 ft | 408 kts | 53° |
| 2026-04-20 16:03 | 41.76712 | -89.22404 | 19286 ft | 408 kts | 53° |
| 2026-04-20 16:04 | 41.78072 | -89.19121 | 18716 ft | 398 kts | 53° |
| 2026-04-20 16:04 | 41.79412 | -89.15881 | 18150 ft | 396 kts | 54° |
| 2026-04-20 16:04 | 41.80745 | -89.12655 | 17629 ft | 394 kts | 54° |
| 2026-04-20 16:04 | 41.82069 | -89.09446 | 17109 ft | 391 kts | 54° |
| 2026-04-20 16:05 | 41.83382 | -89.06258 | 16589 ft | 388 kts | 54° |
| 2026-04-20 16:05 | 41.84683 | -89.03097 | 16080 ft | 386 kts | 54° |
| 2026-04-20 16:05 | 41.85958 | -89.00000 | 15582 ft | 383 kts | 54° |
| 2026-04-20 16:05 | 41.87239 | -88.96880 | 15078 ft | 380 kts | 54° |
| 2026-04-20 16:06 | 41.88511 | -88.93779 | 14574 ft | 378 kts | 54° |
| 2026-04-20 16:06 | 41.89772 | -88.90704 | 14066 ft | 375 kts | 54° |
| 2026-04-20 16:06 | 41.91025 | -88.87642 | 13554 ft | 372 kts | 55° |
| 2026-04-20 16:06 | 41.92268 | -88.84604 | 13081 ft | 369 kts | 55° |
| 2026-04-20 16:07 | 41.93497 | -88.81596 | 12590 ft | 366 kts | 55° |
| 2026-04-20 16:07 | 41.94717 | -88.78610 | 12113 ft | 363 kts | 55° |
| 2026-04-20 16:07 | 41.95924 | -88.75649 | 11646 ft | 360 kts | 55° |
| 2026-04-20 16:07 | 41.97122 | -88.72706 | 11177 ft | 351 kts | 55° |
| 2026-04-20 16:08 | 41.98243 | -88.69930 | 10770 ft | 326 kts | 55° |
| 2026-04-20 16:08 | 41.99273 | -88.67392 | 10392 ft | 306 kts | 54° |
| 2026-04-20 16:08 | 42.00262 | -88.64974 | 10008 ft | 296 kts | 54° |
| 2026-04-20 16:08 | 42.01245 | -88.62568 | 9634 ft | 292 kts | 55° |
| 2026-04-20 16:09 | 42.02214 | -88.60179 | 9259 ft | 290 kts | 56° |
| 2026-04-20 16:09 | 42.03175 | -88.57805 | 8885 ft | 288 kts | 56° |
| 2026-04-20 16:09 | 42.04130 | -88.55447 | 8513 ft | 286 kts | 56° |
| 2026-04-20 16:09 | 42.05078 | -88.53104 | 8141 ft | 284 kts | 57° |
| 2026-04-20 16:10 | 42.06018 | -88.50778 | 7773 ft | 282 kts | 57° |
| 2026-04-20 16:10 | 42.06951 | -88.48471 | 7406 ft | 280 kts | 57° |
| 2026-04-20 16:10 | 42.07876 | -88.46179 | 7042 ft | 278 kts | 58° |
| 2026-04-20 16:10 | 42.08791 | -88.43910 | 6661 ft | 270 kts | 58° |
| 2026-04-20 16:11 | 42.09659 | -88.41750 | 6315 ft | 255 kts | 58° |
| 2026-04-20 16:11 | 42.10485 | -88.39700 | 6008 ft | 244 kts | 59° |
| 2026-04-20 16:11 | 42.11277 | -88.37736 | 5692 ft | 234 kts | 59° |
| 2026-04-20 16:11 | 42.12039 | -88.35842 | 5408 ft | 227 kts | 60° |
| 2026-04-20 16:12 | 42.12698 | -88.33949 | 5084 ft | 223 kts | 73° |
| 2026-04-20 16:12 | 42.12627 | -88.31903 | 4768 ft | 218 kts | 103° |
| 2026-04-20 16:12 | 42.12250 | -88.29960 | 4549 ft | 217 kts | 105° |
| 2026-04-20 16:12 | 42.11894 | -88.28068 | 4285 ft | 198 kts | 104° |
| 2026-04-20 16:13 | 42.11573 | -88.26318 | 4048 ft | 189 kts | 105° |
| 2026-04-20 16:13 | 42.11256 | -88.24614 | 3785 ft | 185 kts | 105° |
| 2026-04-20 16:13 | 42.10946 | -88.22942 | 3535 ft | 184 kts | 106° |
| 2026-04-20 16:13 | 42.10623 | -88.21296 | 3295 ft | 181 kts | 108° |
| 2026-04-20 16:14 | 42.09907 | -88.19934 | 3039 ft | 179 kts | 140° |
| 2026-04-20 16:14 | 42.08828 | -88.19221 | 2986 ft | 165 kts | 167° |
| 2026-04-20 16:14 | 42.07769 | -88.19213 | 2994 ft | 142 kts | 190° |
| 2026-04-20 16:14 | 42.06904 | -88.19512 | 2988 ft | 121 kts | 192° |
| 2026-04-20 16:15 | 42.06066 | -88.19781 | 2986 ft | 124 kts | 193° |
| 2026-04-20 16:15 | 42.05213 | -88.20063 | 2999 ft | 125 kts | 193° |
| 2026-04-20 16:15 | 42.04366 | -88.20345 | 3001 ft | 129 kts | 193° |
| 2026-04-20 16:15 | 42.03495 | -88.20636 | 2923 ft | 127 kts | 193° |
| 2026-04-20 16:16 | 42.02628 | -88.20927 | 2821 ft | 128 kts | 193° |
| 2026-04-20 16:16 | 42.01783 | -88.21210 | 2706 ft | 126 kts | 193° |
| 2026-04-20 16:16 | 42.00925 | -88.21498 | 2603 ft | 127 kts | 193° |
| 2026-04-20 16:16 | 42.00075 | -88.21784 | 2497 ft | 125 kts | 193° |
| 2026-04-20 16:17 | 41.99232 | -88.22065 | 2312 ft | 125 kts | 193° |
| 2026-04-20 16:17 | 41.98389 | -88.22325 | 2148 ft | 126 kts | 192° |
| 2026-04-20 16:17 | 41.97538 | -88.22588 | 2028 ft | 124 kts | 192° |
| 2026-04-20 16:17 | 41.96713 | -88.22917 | 1905 ft | 125 kts | 195° |
| 2026-04-20 16:18 | 41.95858 | -88.23199 | 1787 ft | 127 kts | 192° |
| 2026-04-20 16:18 | 41.94995 | -88.23487 | 1614 ft | 128 kts | 194° |
| 2026-04-20 16:18 | 41.94129 | -88.23789 | 1399 ft | 130 kts | 194° |
| 2026-04-20 16:18 | 41.93244 | -88.24081 | 1197 ft | 131 kts | 194° |
| 2026-04-20 16:19 | 41.92352 | -88.24377 | 1002 ft | 132 kts | 194° |
| 2026-04-20 16:19 | 41.91450 | -88.24671 | 818 ft | 134 kts | 195° |
| 2026-04-20 16:19 | 41.90609 | -88.24955 | 762 ft | 113 kts | 194° |
| 2026-04-20 16:19 | 41.90025 | -88.25154 | 755 ft | 57 kts | 193° |
| 2026-04-20 16:20 | 41.89695 | -88.25257 | 758 ft | 40 kts | 194° |
| 2026-04-20 16:20 | 41.89527 | -88.25316 | 760 ft | 11 kts | 194° |
| 2026-04-20 16:20 | 41.89494 | -88.25380 | 758 ft | 8 kts | 279° |
| 2026-04-20 16:20 | 41.89506 | -88.25442 | 755 ft | 6 kts | 295° |
| 2026-04-20 16:21 | 41.89549 | -88.25457 | 754 ft | 7 kts | 11° |
| 2026-04-20 16:21 | 41.89593 | -88.25445 | 755 ft | 6 kts | 11° |
| 2026-04-20 16:21 | 41.89631 | -88.25434 | 757 ft | 6 kts | 15° |
| 2026-04-20 16:21 | 41.89690 | -88.25413 | 757 ft | 12 kts | 13° |
| 2026-04-20 16:22 | 41.89790 | -88.25380 | 757 ft | 16 kts | 14° |
| 2026-04-20 16:22 | 41.89892 | -88.25344 | 759 ft | 14 kts | 14° |
| 2026-04-20 16:22 | 41.89988 | -88.25311 | 758 ft | 14 kts | 14° |
| 2026-04-20 16:22 | 41.90094 | -88.25276 | 755 ft | 17 kts | 14° |
| 2026-04-20 16:23 | 41.90201 | -88.25240 | 755 ft | 15 kts | 14° |
| 2026-04-20 16:23 | 41.90286 | -88.25219 | 756 ft | 10 kts | 347° |
| 2026-04-20 16:23 | 41.90313 | -88.25277 | 758 ft | 7 kts | 283° |
| 2026-04-20 16:23 | 41.90329 | -88.25361 | 757 ft | 12 kts | 283° |
| 2026-04-20 16:24 | 41.90349 | -88.25471 | 758 ft | 13 kts | 285° |
| 2026-04-20 16:24 | 41.90400 | -88.25547 | 756 ft | 10 kts | 349° |
| 2026-04-20 16:24 | 41.90449 | -88.25508 | 757 ft | 8 kts | 67° |
| 2026-04-20 16:24 | 41.90477 | -88.25463 | 754 ft | 6 kts | 17° |
| 2026-04-20 16:25 | 41.90520 | -88.25457 | 756 ft | 6 kts | 0° |
| 2026-04-20 16:25 | 41.90543 | -88.25457 | 757 ft | 0 kts | 0° |